sensor_id;sensor_type;location;lat;lon;timestamp;temperature;humidity
33901;DHT22;20193;49.810;6.418;2022-08-26T00:00:32;20.50;76.00
33901;DHT22;20193;49.810;6.418;2022-08-26T00:02:58;20.50;76.30
33901;DHT22;20193;49.810;6.418;2022-08-26T00:05:24;20.50;76.70
33901;DHT22;20193;49.810;6.418;2022-08-26T00:07:50;20.50;77.00
33901;DHT22;20193;49.810;6.418;2022-08-26T00:10:16;20.50;77.10
33901;DHT22;20193;49.810;6.418;2022-08-26T00:12:42;20.50;77.50
33901;DHT22;20193;49.810;6.418;2022-08-26T00:15:11;20.50;77.70
33901;DHT22;20193;49.810;6.418;2022-08-26T00:17:37;20.50;78.10
33901;DHT22;20193;49.810;6.418;2022-08-26T00:20:05;20.50;78.50
33901;DHT22;20193;49.810;6.418;2022-08-26T00:22:31;20.50;78.70
33901;DHT22;20193;49.810;6.418;2022-08-26T00:24:56;20.50;78.80
33901;DHT22;20193;49.810;6.418;2022-08-26T00:27:22;20.50;78.90
33901;DHT22;20193;49.810;6.418;2022-08-26T00:29:48;20.40;79.00
33901;DHT22;20193;49.810;6.418;2022-08-26T00:32:13;20.40;79.10
33901;DHT22;20193;49.810;6.418;2022-08-26T00:34:39;20.40;79.20
33901;DHT22;20193;49.810;6.418;2022-08-26T00:37:05;20.40;80.10
33901;DHT22;20193;49.810;6.418;2022-08-26T00:39:30;20.30;79.50
33901;DHT22;20193;49.810;6.418;2022-08-26T00:41:56;20.30;79.80
33901;DHT22;20193;49.810;6.418;2022-08-26T00:44:22;20.30;80.00
33901;DHT22;20193;49.810;6.418;2022-08-26T00:46:52;20.30;80.00
33901;DHT22;20193;49.810;6.418;2022-08-26T00:49:43;20.20;80.10
33901;DHT22;20193;49.810;6.418;2022-08-26T00:52:16;20.20;80.20
33901;DHT22;20193;49.810;6.418;2022-08-26T00:54:54;20.10;80.30
33901;DHT22;20193;49.810;6.418;2022-08-26T00:57:23;20.10;80.40
33901;DHT22;20193;49.810;6.418;2022-08-26T00:59:55;20.10;80.40
33901;DHT22;20193;49.810;6.418;2022-08-26T01:02:22;20.00;80.60
33901;DHT22;20193;49.810;6.418;2022-08-26T01:04:50;20.00;80.70
33901;DHT22;20193;49.810;6.418;2022-08-26T01:07:17;20.00;80.80
33901;DHT22;20193;49.810;6.418;2022-08-26T01:09:44;19.90;80.80
33901;DHT22;20193;49.810;6.418;2022-08-26T01:12:10;19.90;80.80
33901;DHT22;20193;49.810;6.418;2022-08-26T01:14:36;19.80;80.80
33901;DHT22;20193;49.810;6.418;2022-08-26T01:17:04;19.80;81.10
33901;DHT22;20193;49.810;6.418;2022-08-26T01:19:35;19.80;81.20
33901;DHT22;20193;49.810;6.418;2022-08-26T01:22:09;19.80;81.20
33901;DHT22;20193;49.810;6.418;2022-08-26T01:24:37;19.70;81.30
33901;DHT22;20193;49.810;6.418;2022-08-26T01:27:07;19.70;81.40
33901;DHT22;20193;49.810;6.418;2022-08-26T01:29:34;19.60;81.50
33901;DHT22;20193;49.810;6.418;2022-08-26T01:32:02;19.60;81.70
33901;DHT22;20193;49.810;6.418;2022-08-26T01:34:33;19.60;81.80
33901;DHT22;20193;49.810;6.418;2022-08-26T01:37:16;19.50;81.70
33901;DHT22;20193;49.810;6.418;2022-08-26T01:39:46;19.50;82.00
33901;DHT22;20193;49.810;6.418;2022-08-26T01:42:13;19.50;81.90
33901;DHT22;20193;49.810;6.418;2022-08-26T01:44:43;19.40;82.00
33901;DHT22;20193;49.810;6.418;2022-08-26T01:47:11;19.40;82.00
33901;DHT22;20193;49.810;6.418;2022-08-26T01:49:38;19.40;82.20
33901;DHT22;20193;49.810;6.418;2022-08-26T01:52:07;19.30;82.20
33901;DHT22;20193;49.810;6.418;2022-08-26T01:54:34;19.30;82.30
33901;DHT22;20193;49.810;6.418;2022-08-26T01:57:00;19.30;82.40
33901;DHT22;20193;49.810;6.418;2022-08-26T01:59:27;19.20;82.50
33901;DHT22;20193;49.810;6.418;2022-08-26T02:01:53;19.20;82.90
33901;DHT22;20193;49.810;6.418;2022-08-26T02:06:45;19.20;83.30
33901;DHT22;20193;49.810;6.418;2022-08-26T02:09:12;19.20;83.50
33901;DHT22;20193;49.810;6.418;2022-08-26T02:11:38;19.10;83.50
33901;DHT22;20193;49.810;6.418;2022-08-26T02:14:14;19.10;83.60
33901;DHT22;20193;49.810;6.418;2022-08-26T02:16:44;19.00;83.60
33901;DHT22;20193;49.810;6.418;2022-08-26T02:19:17;19.10;83.80
33901;DHT22;20193;49.810;6.418;2022-08-26T02:21:45;19.00;83.90
33901;DHT22;20193;49.810;6.418;2022-08-26T02:24:15;19.00;84.10
33901;DHT22;20193;49.810;6.418;2022-08-26T02:26:42;19.00;84.20
33901;DHT22;20193;49.810;6.418;2022-08-26T02:29:31;18.90;84.20
33901;DHT22;20193;49.810;6.418;2022-08-26T02:31:59;18.90;84.40
33901;DHT22;20193;49.810;6.418;2022-08-26T02:34:27;18.90;84.90
33901;DHT22;20193;49.810;6.418;2022-08-26T02:36:55;18.80;85.20
33901;DHT22;20193;49.810;6.418;2022-08-26T02:39:21;18.90;85.40
33901;DHT22;20193;49.810;6.418;2022-08-26T02:41:47;18.80;85.50
33901;DHT22;20193;49.810;6.418;2022-08-26T02:44:13;18.90;85.90
33901;DHT22;20193;49.810;6.418;2022-08-26T02:46:38;18.80;86.00
33901;DHT22;20193;49.810;6.418;2022-08-26T02:49:04;18.80;86.20
33901;DHT22;20193;49.810;6.418;2022-08-26T02:51:30;18.90;86.30
33901;DHT22;20193;49.810;6.418;2022-08-26T02:53:55;18.90;86.50
33901;DHT22;20193;49.810;6.418;2022-08-26T02:56:21;18.90;86.60
33901;DHT22;20193;49.810;6.418;2022-08-26T02:58:47;18.90;86.70
33901;DHT22;20193;49.810;6.418;2022-08-26T03:01:24;18.90;86.80
33901;DHT22;20193;49.810;6.418;2022-08-26T03:03:51;18.90;86.80
33901;DHT22;20193;49.810;6.418;2022-08-26T03:06:17;18.90;86.90
33901;DHT22;20193;49.810;6.418;2022-08-26T03:08:43;18.90;86.90
33901;DHT22;20193;49.810;6.418;2022-08-26T03:11:09;19.00;87.20
33901;DHT22;20193;49.810;6.418;2022-08-26T03:13:36;19.00;87.20
33901;DHT22;20193;49.810;6.418;2022-08-26T03:16:02;19.00;87.40
33901;DHT22;20193;49.810;6.418;2022-08-26T03:18:28;19.00;87.40
33901;DHT22;20193;49.810;6.418;2022-08-26T03:20:53;19.00;87.60
33901;DHT22;20193;49.810;6.418;2022-08-26T03:23:19;19.10;88.00
33901;DHT22;20193;49.810;6.418;2022-08-26T03:25:51;19.10;88.20
33901;DHT22;20193;49.810;6.418;2022-08-26T03:28:18;19.10;88.40
33901;DHT22;20193;49.810;6.418;2022-08-26T03:30:44;19.10;88.40
33901;DHT22;20193;49.810;6.418;2022-08-26T03:33:10;19.20;88.70
33901;DHT22;20193;49.810;6.418;2022-08-26T03:35:38;19.20;88.70
33901;DHT22;20193;49.810;6.418;2022-08-26T03:38:04;19.20;88.80
33901;DHT22;20193;49.810;6.418;2022-08-26T03:40:33;19.20;88.80
33901;DHT22;20193;49.810;6.418;2022-08-26T03:42:59;19.30;89.00
33901;DHT22;20193;49.810;6.418;2022-08-26T03:45:25;19.30;89.00
33901;DHT22;20193;49.810;6.418;2022-08-26T03:47:51;19.30;89.00
33901;DHT22;20193;49.810;6.418;2022-08-26T03:50:19;19.30;89.00
33901;DHT22;20193;49.810;6.418;2022-08-26T03:52:46;19.30;89.10
33901;DHT22;20193;49.810;6.418;2022-08-26T03:55:12;19.40;89.10
33901;DHT22;20193;49.810;6.418;2022-08-26T03:57:38;19.40;89.10
33901;DHT22;20193;49.810;6.418;2022-08-26T04:00:06;19.40;89.10
33901;DHT22;20193;49.810;6.418;2022-08-26T04:02:32;19.40;88.90
33901;DHT22;20193;49.810;6.418;2022-08-26T04:04:58;19.40;88.90
33901;DHT22;20193;49.810;6.418;2022-08-26T04:07:23;19.40;88.90
33901;DHT22;20193;49.810;6.418;2022-08-26T04:09:54;19.40;88.80
33901;DHT22;20193;49.810;6.418;2022-08-26T04:12:20;19.40;88.80
33901;DHT22;20193;49.810;6.418;2022-08-26T04:14:46;19.40;88.80
33901;DHT22;20193;49.810;6.418;2022-08-26T04:17:11;19.40;88.80
33901;DHT22;20193;49.810;6.418;2022-08-26T04:19:37;19.40;88.80
33901;DHT22;20193;49.810;6.418;2022-08-26T04:22:04;19.50;88.80
33901;DHT22;20193;49.810;6.418;2022-08-26T04:24:29;19.40;88.80
33901;DHT22;20193;49.810;6.418;2022-08-26T04:26:55;19.50;88.80
33901;DHT22;20193;49.810;6.418;2022-08-26T04:29:24;19.40;88.60
33901;DHT22;20193;49.810;6.418;2022-08-26T04:31:50;19.50;88.70
33901;DHT22;20193;49.810;6.418;2022-08-26T04:34:16;19.50;88.60
33901;DHT22;20193;49.810;6.418;2022-08-26T04:36:43;19.50;88.70
33901;DHT22;20193;49.810;6.418;2022-08-26T04:39:10;19.50;88.70
33901;DHT22;20193;49.810;6.418;2022-08-26T04:41:42;19.50;88.70
33901;DHT22;20193;49.810;6.418;2022-08-26T04:44:08;19.50;88.70
33901;DHT22;20193;49.810;6.418;2022-08-26T04:46:34;19.50;88.80
33901;DHT22;20193;49.810;6.418;2022-08-26T04:49:01;19.50;88.70
33901;DHT22;20193;49.810;6.418;2022-08-26T04:51:26;19.60;88.90
33901;DHT22;20193;49.810;6.418;2022-08-26T04:53:54;19.60;88.90
33901;DHT22;20193;49.810;6.418;2022-08-26T04:56:22;19.60;88.90
33901;DHT22;20193;49.810;6.418;2022-08-26T04:58:48;19.60;89.00
33901;DHT22;20193;49.810;6.418;2022-08-26T05:01:14;19.60;89.00
33901;DHT22;20193;49.810;6.418;2022-08-26T05:03:39;19.60;89.00
33901;DHT22;20193;49.810;6.418;2022-08-26T05:06:05;19.70;89.70
33901;DHT22;20193;49.810;6.418;2022-08-26T05:08:31;19.70;89.20
33901;DHT22;20193;49.810;6.418;2022-08-26T05:10:57;19.70;89.30
33901;DHT22;20193;49.810;6.418;2022-08-26T05:13:25;19.80;89.40
33901;DHT22;20193;49.810;6.418;2022-08-26T05:15:52;19.80;89.40
33901;DHT22;20193;49.810;6.418;2022-08-26T05:18:20;19.90;89.40
33901;DHT22;20193;49.810;6.418;2022-08-26T05:20:49;20.00;89.60
33901;DHT22;20193;49.810;6.418;2022-08-26T05:23:16;20.10;89.40
33901;DHT22;20193;49.810;6.418;2022-08-26T05:25:45;20.10;89.20
33901;DHT22;20193;49.810;6.418;2022-08-26T05:28:13;20.20;89.20
33901;DHT22;20193;49.810;6.418;2022-08-26T05:30:39;20.20;89.10
33901;DHT22;20193;49.810;6.418;2022-08-26T05:33:06;20.30;89.00
33901;DHT22;20193;49.810;6.418;2022-08-26T05:35:33;20.40;89.20
33901;DHT22;20193;49.810;6.418;2022-08-26T05:38:09;20.50;89.00
33901;DHT22;20193;49.810;6.418;2022-08-26T05:40:38;20.50;88.80
33901;DHT22;20193;49.810;6.418;2022-08-26T05:43:05;20.50;88.50
33901;DHT22;20193;49.810;6.418;2022-08-26T05:45:39;20.60;88.40
33901;DHT22;20193;49.810;6.418;2022-08-26T05:48:05;20.60;88.50
33901;DHT22;20193;49.810;6.418;2022-08-26T05:50:48;20.70;88.40
33901;DHT22;20193;49.810;6.418;2022-08-26T05:53:17;20.80;88.20
33901;DHT22;20193;49.810;6.418;2022-08-26T05:55:49;20.80;88.10
33901;DHT22;20193;49.810;6.418;2022-08-26T05:58:16;20.90;88.10
33901;DHT22;20193;49.810;6.418;2022-08-26T06:00:44;20.90;87.80
33901;DHT22;20193;49.810;6.418;2022-08-26T06:03:10;20.90;87.70
33901;DHT22;20193;49.810;6.418;2022-08-26T06:05:39;21.00;87.60
33901;DHT22;20193;49.810;6.418;2022-08-26T06:08:06;21.10;87.50
33901;DHT22;20193;49.810;6.418;2022-08-26T06:10:51;21.10;87.50
33901;DHT22;20193;49.810;6.418;2022-08-26T06:13:18;21.20;87.50
33901;DHT22;20193;49.810;6.418;2022-08-26T06:15:47;21.30;87.40
33901;DHT22;20193;49.810;6.418;2022-08-26T06:18:14;21.40;87.20
33901;DHT22;20193;49.810;6.418;2022-08-26T06:20:44;21.40;87.00
33901;DHT22;20193;49.810;6.418;2022-08-26T06:23:15;21.50;86.80
33901;DHT22;20193;49.810;6.418;2022-08-26T06:25:59;21.60;86.50
33901;DHT22;20193;49.810;6.418;2022-08-26T06:28:26;21.60;86.30
33901;DHT22;20193;49.810;6.418;2022-08-26T06:30:52;21.70;86.10
33901;DHT22;20193;49.810;6.418;2022-08-26T06:33:22;21.80;86.20
33901;DHT22;20193;49.810;6.418;2022-08-26T06:35:48;21.90;86.20
33901;DHT22;20193;49.810;6.418;2022-08-26T06:38:15;21.90;86.10
33901;DHT22;20193;49.810;6.418;2022-08-26T06:40:43;22.00;86.10
33901;DHT22;20193;49.810;6.418;2022-08-26T06:43:10;22.10;86.10
33901;DHT22;20193;49.810;6.418;2022-08-26T06:45:37;22.20;86.10
33901;DHT22;20193;49.810;6.418;2022-08-26T06:48:06;22.30;85.90
33901;DHT22;20193;49.810;6.418;2022-08-26T06:50:33;22.40;85.60
33901;DHT22;20193;49.810;6.418;2022-08-26T06:52:59;22.50;85.60
33901;DHT22;20193;49.810;6.418;2022-08-26T06:55:25;22.60;85.70
33901;DHT22;20193;49.810;6.418;2022-08-26T06:57:51;22.70;85.60
33901;DHT22;20193;49.810;6.418;2022-08-26T07:00:16;22.80;85.80
33901;DHT22;20193;49.810;6.418;2022-08-26T07:02:42;22.90;85.50
33901;DHT22;20193;49.810;6.418;2022-08-26T07:05:08;23.00;85.40
33901;DHT22;20193;49.810;6.418;2022-08-26T07:07:34;23.10;85.70
33901;DHT22;20193;49.810;6.418;2022-08-26T07:10:00;23.20;86.10
33901;DHT22;20193;49.810;6.418;2022-08-26T07:12:25;23.40;86.50
33901;DHT22;20193;49.810;6.418;2022-08-26T07:14:51;23.50;86.70
33901;DHT22;20193;49.810;6.418;2022-08-26T07:17:17;23.60;86.70
33901;DHT22;20193;49.810;6.418;2022-08-26T07:19:44;23.70;86.90
33901;DHT22;20193;49.810;6.418;2022-08-26T07:22:09;23.90;86.70
33901;DHT22;20193;49.810;6.418;2022-08-26T07:24:36;24.00;86.50
33901;DHT22;20193;49.810;6.418;2022-08-26T07:27:05;24.10;86.20
33901;DHT22;20193;49.810;6.418;2022-08-26T07:29:32;24.20;86.10
33901;DHT22;20193;49.810;6.418;2022-08-26T07:31:58;24.30;85.60
33901;DHT22;20193;49.810;6.418;2022-08-26T07:34:24;24.30;85.30
33901;DHT22;20193;49.810;6.418;2022-08-26T07:36:50;24.40;85.10
33901;DHT22;20193;49.810;6.418;2022-08-26T07:39:16;24.50;84.80
33901;DHT22;20193;49.810;6.418;2022-08-26T07:41:42;24.50;84.40
33901;DHT22;20193;49.810;6.418;2022-08-26T07:44:12;24.50;84.10
33901;DHT22;20193;49.810;6.418;2022-08-26T07:46:38;24.60;84.00
33901;DHT22;20193;49.810;6.418;2022-08-26T07:49:04;24.70;83.80
33901;DHT22;20193;49.810;6.418;2022-08-26T07:51:30;24.70;83.70
33901;DHT22;20193;49.810;6.418;2022-08-26T07:53:56;24.80;83.30
33901;DHT22;20193;49.810;6.418;2022-08-26T07:56:22;24.90;83.30
33901;DHT22;20193;49.810;6.418;2022-08-26T07:58:49;24.90;82.80
33901;DHT22;20193;49.810;6.418;2022-08-26T08:01:15;24.90;82.70
33901;DHT22;20193;49.810;6.418;2022-08-26T08:03:40;25.00;82.80
33901;DHT22;20193;49.810;6.418;2022-08-26T08:06:06;25.10;82.70
33901;DHT22;20193;49.810;6.418;2022-08-26T08:08:32;25.20;82.50
33901;DHT22;20193;49.810;6.418;2022-08-26T08:11:00;25.20;81.80
33901;DHT22;20193;49.810;6.418;2022-08-26T08:13:27;25.40;81.40
33901;DHT22;20193;49.810;6.418;2022-08-26T08:15:53;25.50;81.10
33901;DHT22;20193;49.810;6.418;2022-08-26T08:18:19;25.50;80.50
33901;DHT22;20193;49.810;6.418;2022-08-26T08:20:45;25.50;80.30
33901;DHT22;20193;49.810;6.418;2022-08-26T08:23:11;25.50;80.40
33901;DHT22;20193;49.810;6.418;2022-08-26T08:25:37;25.60;80.10
33901;DHT22;20193;49.810;6.418;2022-08-26T08:28:02;25.60;79.90
33901;DHT22;20193;49.810;6.418;2022-08-26T08:30:29;25.70;79.70
33901;DHT22;20193;49.810;6.418;2022-08-26T08:32:55;25.80;79.60
33901;DHT22;20193;49.810;6.418;2022-08-26T08:35:21;25.80;79.30
33901;DHT22;20193;49.810;6.418;2022-08-26T08:37:48;26.00;79.40
33901;DHT22;20193;49.810;6.418;2022-08-26T08:40:18;26.10;79.30
33901;DHT22;20193;49.810;6.418;2022-08-26T08:45:21;26.50;78.50
33901;DHT22;20193;49.810;6.418;2022-08-26T08:48:23;26.60;77.40
33901;DHT22;20193;49.810;6.418;2022-08-26T08:53:55;27.00;75.90
33901;DHT22;20193;49.810;6.418;2022-08-26T08:56:38;27.20;75.60
33901;DHT22;20193;49.810;6.418;2022-08-26T08:59:15;27.40;74.50
33901;DHT22;20193;49.810;6.418;2022-08-26T09:06:53;27.80;73.50
33901;DHT22;20193;49.810;6.418;2022-08-26T09:12:19;28.00;72.10
33901;DHT22;20193;49.810;6.418;2022-08-26T09:14:47;28.00;72.20
33901;DHT22;20193;49.810;6.418;2022-08-26T09:20:06;28.00;71.80
33901;DHT22;20193;49.810;6.418;2022-08-26T09:22:37;28.00;71.80
33901;DHT22;20193;49.810;6.418;2022-08-26T09:25:07;28.10;71.70
33901;DHT22;20193;49.810;6.418;2022-08-26T09:30:03;28.10;71.60
33901;DHT22;20193;49.810;6.418;2022-08-26T09:32:29;28.10;71.40
33901;DHT22;20193;49.810;6.418;2022-08-26T09:35:03;28.10;71.00
33901;DHT22;20193;49.810;6.418;2022-08-26T09:37:41;28.10;71.10
33901;DHT22;20193;49.810;6.418;2022-08-26T09:42:41;28.30;70.80
33901;DHT22;20193;49.810;6.418;2022-08-26T09:45:07;28.40;70.00
33901;DHT22;20193;49.810;6.418;2022-08-26T09:55:38;28.90;68.90
33901;DHT22;20193;49.810;6.418;2022-08-26T09:58:06;29.10;68.60
33901;DHT22;20193;49.810;6.418;2022-08-26T10:00:37;29.20;68.10
33901;DHT22;20193;49.810;6.418;2022-08-26T10:03:09;29.20;67.70
33901;DHT22;20193;49.810;6.418;2022-08-26T10:05:45;29.40;67.70
33901;DHT22;20193;49.810;6.418;2022-08-26T10:08:36;29.50;67.10
33901;DHT22;20193;49.810;6.418;2022-08-26T10:11:23;29.50;66.60
33901;DHT22;20193;49.810;6.418;2022-08-26T10:13:58;29.40;66.30
33901;DHT22;20193;49.810;6.418;2022-08-26T10:16:26;29.40;66.60
33901;DHT22;20193;49.810;6.418;2022-08-26T10:19:05;29.40;66.70
33901;DHT22;20193;49.810;6.418;2022-08-26T10:21:55;29.40;66.30
33901;DHT22;20193;49.810;6.418;2022-08-26T10:24:34;29.20;66.20
33901;DHT22;20193;49.810;6.418;2022-08-26T10:27:13;29.00;66.60
33901;DHT22;20193;49.810;6.418;2022-08-26T10:29:46;28.90;66.90
33901;DHT22;20193;49.810;6.418;2022-08-26T10:32:36;28.70;67.10
33901;DHT22;20193;49.810;6.418;2022-08-26T10:35:03;28.50;67.70
33901;DHT22;20193;49.810;6.418;2022-08-26T10:37:44;28.30;68.10
33901;DHT22;20193;49.810;6.418;2022-08-26T10:40:20;28.20;68.40
33901;DHT22;20193;49.810;6.418;2022-08-26T10:42:56;28.20;68.60
33901;DHT22;20193;49.810;6.418;2022-08-26T10:45:25;28.10;68.50
33901;DHT22;20193;49.810;6.418;2022-08-26T10:48:03;28.10;68.80
33901;DHT22;20193;49.810;6.418;2022-08-26T10:50:41;28.00;69.10
33901;DHT22;20193;49.810;6.418;2022-08-26T10:56:08;27.80;69.40
33901;DHT22;20193;49.810;6.418;2022-08-26T11:02:01;27.20;70.60
33901;DHT22;20193;49.810;6.418;2022-08-26T11:06:42;26.70;71.90
33901;DHT22;20193;49.810;6.418;2022-08-26T11:09:12;26.60;72.40
33901;DHT22;20193;49.810;6.418;2022-08-26T11:11:57;26.30;72.80
33901;DHT22;20193;49.810;6.418;2022-08-26T11:16:53;26.00;73.90
33901;DHT22;20193;49.810;6.418;2022-08-26T11:22:05;25.80;74.90
33901;DHT22;20193;49.810;6.418;2022-08-26T11:27:03;25.70;75.60
33901;DHT22;20193;49.810;6.418;2022-08-26T11:29:55;25.60;75.80
33901;DHT22;20193;49.810;6.418;2022-08-26T11:32:49;25.70;76.00
33901;DHT22;20193;49.810;6.418;2022-08-26T11:37:53;25.40;76.80
33901;DHT22;20193;49.810;6.418;2022-08-26T11:40:30;25.30;77.20
33901;DHT22;20193;49.810;6.418;2022-08-26T11:43:05;25.20;77.50
33901;DHT22;20193;49.810;6.418;2022-08-26T11:45:35;25.20;77.80
33901;DHT22;20193;49.810;6.418;2022-08-26T11:48:20;25.10;78.00
33901;DHT22;20193;49.810;6.418;2022-08-26T11:50:53;25.00;78.20
33901;DHT22;20193;49.810;6.418;2022-08-26T11:53:19;25.00;78.50
33901;DHT22;20193;49.810;6.418;2022-08-26T11:55:45;24.90;78.80
33901;DHT22;20193;49.810;6.418;2022-08-26T11:58:12;24.90;79.10
33901;DHT22;20193;49.810;6.418;2022-08-26T12:00:47;24.80;79.20
33901;DHT22;20193;49.810;6.418;2022-08-26T12:03:17;24.80;79.40
33901;DHT22;20193;49.810;6.418;2022-08-26T12:05:46;24.70;79.70
33901;DHT22;20193;49.810;6.418;2022-08-26T12:08:17;24.70;79.80
33901;DHT22;20193;49.810;6.418;2022-08-26T12:10:43;24.70;79.90
33901;DHT22;20193;49.810;6.418;2022-08-26T12:13:22;24.70;80.10
33901;DHT22;20193;49.810;6.418;2022-08-26T12:15:56;24.60;80.00
33901;DHT22;20193;49.810;6.418;2022-08-26T12:18:33;24.60;79.90
33901;DHT22;20193;49.810;6.418;2022-08-26T12:21:10;24.50;80.00
33901;DHT22;20193;49.810;6.418;2022-08-26T12:23:40;24.50;80.20
33901;DHT22;20193;49.810;6.418;2022-08-26T12:29:08;24.50;80.40
33901;DHT22;20193;49.810;6.418;2022-08-26T12:31:40;24.50;80.70
33901;DHT22;20193;49.810;6.418;2022-08-26T12:34:09;24.40;80.70
33901;DHT22;20193;49.810;6.418;2022-08-26T12:39:22;24.50;80.70
33901;DHT22;20193;49.810;6.418;2022-08-26T12:41:51;24.50;80.50
33901;DHT22;20193;49.810;6.418;2022-08-26T12:44:44;24.50;80.40
33901;DHT22;20193;49.810;6.418;2022-08-26T12:52:59;24.50;80.40
33901;DHT22;20193;49.810;6.418;2022-08-26T13:00:53;24.40;80.30
33901;DHT22;20193;49.810;6.418;2022-08-26T13:08:53;24.50;80.30
33901;DHT22;20193;49.810;6.418;2022-08-26T13:14:05;24.40;80.40
33901;DHT22;20193;49.810;6.418;2022-08-26T13:16:31;24.50;80.50
33901;DHT22;20193;49.810;6.418;2022-08-26T13:18:59;24.50;80.40
33901;DHT22;20193;49.810;6.418;2022-08-26T13:21:28;24.60;80.40
33901;DHT22;20193;49.810;6.418;2022-08-26T13:23:54;24.60;80.20
33901;DHT22;20193;49.810;6.418;2022-08-26T13:26:20;24.70;80.20
33901;DHT22;20193;49.810;6.418;2022-08-26T13:28:47;24.70;80.10
33901;DHT22;20193;49.810;6.418;2022-08-26T13:31:13;24.80;79.80
33901;DHT22;20193;49.810;6.418;2022-08-26T13:33:40;24.90;79.90
33901;DHT22;20193;49.810;6.418;2022-08-26T13:36:07;24.90;79.50
33901;DHT22;20193;49.810;6.418;2022-08-26T13:38:33;24.80;79.40
33901;DHT22;20193;49.810;6.418;2022-08-26T13:40:58;24.90;79.60
33901;DHT22;20193;49.810;6.418;2022-08-26T13:43:25;24.90;79.30
33901;DHT22;20193;49.810;6.418;2022-08-26T13:45:52;24.90;79.40
33901;DHT22;20193;49.810;6.418;2022-08-26T13:48:18;24.90;79.40
33901;DHT22;20193;49.810;6.418;2022-08-26T13:50:45;25.00;79.30
33901;DHT22;20193;49.810;6.418;2022-08-26T13:53:12;25.00;79.10
33901;DHT22;20193;49.810;6.418;2022-08-26T13:55:39;25.10;79.20
33901;DHT22;20193;49.810;6.418;2022-08-26T13:58:05;25.20;78.90
33901;DHT22;20193;49.810;6.418;2022-08-26T14:00:31;25.30;78.50
33901;DHT22;20193;49.810;6.418;2022-08-26T14:02:58;25.30;78.10
33901;DHT22;20193;49.810;6.418;2022-08-26T14:05:26;25.40;77.90
33901;DHT22;20193;49.810;6.418;2022-08-26T14:07:52;25.40;78.00
33901;DHT22;20193;49.810;6.418;2022-08-26T14:10:18;25.40;78.70
33901;DHT22;20193;49.810;6.418;2022-08-26T14:12:43;25.50;77.90
33901;DHT22;20193;49.810;6.418;2022-08-26T14:15:10;25.60;77.90
33901;DHT22;20193;49.810;6.418;2022-08-26T14:17:36;25.70;77.70
33901;DHT22;20193;49.810;6.418;2022-08-26T14:20:04;25.70;77.20
33901;DHT22;20193;49.810;6.418;2022-08-26T14:22:30;25.80;77.10
33901;DHT22;20193;49.810;6.418;2022-08-26T14:24:57;25.80;76.60
33901;DHT22;20193;49.810;6.418;2022-08-26T14:27:23;25.80;76.70
33901;DHT22;20193;49.810;6.418;2022-08-26T14:29:49;25.80;76.80
33901;DHT22;20193;49.810;6.418;2022-08-26T14:32:24;25.90;77.00
33901;DHT22;20193;49.810;6.418;2022-08-26T14:34:52;25.90;76.30
33901;DHT22;20193;49.810;6.418;2022-08-26T14:37:18;25.80;76.40
33901;DHT22;20193;49.810;6.418;2022-08-26T14:39:45;25.80;76.60
33901;DHT22;20193;49.810;6.418;2022-08-26T14:42:12;25.80;76.50
33901;DHT22;20193;49.810;6.418;2022-08-26T14:44:41;25.70;76.20
33901;DHT22;20193;49.810;6.418;2022-08-26T14:47:08;25.60;76.70
33901;DHT22;20193;49.810;6.418;2022-08-26T14:49:34;25.60;77.00
33901;DHT22;20193;49.810;6.418;2022-08-26T14:52:00;25.60;77.10
33901;DHT22;20193;49.810;6.418;2022-08-26T14:54:28;25.70;77.20
33901;DHT22;20193;49.810;6.418;2022-08-26T14:56:57;25.70;76.90
33901;DHT22;20193;49.810;6.418;2022-08-26T14:59:26;25.70;76.60
33901;DHT22;20193;49.810;6.418;2022-08-26T15:01:52;25.70;76.20
33901;DHT22;20193;49.810;6.418;2022-08-26T15:04:19;25.60;76.60
33901;DHT22;20193;49.810;6.418;2022-08-26T15:06:44;25.60;76.60
33901;DHT22;20193;49.810;6.418;2022-08-26T15:09:10;25.60;76.80
33901;DHT22;20193;49.810;6.418;2022-08-26T15:11:36;25.60;76.80
33901;DHT22;20193;49.810;6.418;2022-08-26T15:14:02;25.70;76.40
33901;DHT22;20193;49.810;6.418;2022-08-26T15:16:28;25.70;76.00
33901;DHT22;20193;49.810;6.418;2022-08-26T15:18:54;25.70;76.20
33901;DHT22;20193;49.810;6.418;2022-08-26T15:21:20;25.80;75.90
33901;DHT22;20193;49.810;6.418;2022-08-26T15:23:47;25.80;75.90
33901;DHT22;20193;49.810;6.418;2022-08-26T15:26:13;25.80;75.70
33901;DHT22;20193;49.810;6.418;2022-08-26T15:28:39;25.70;75.80
33901;DHT22;20193;49.810;6.418;2022-08-26T15:31:06;25.70;76.70
33901;DHT22;20193;49.810;6.418;2022-08-26T15:33:33;25.60;76.10
33901;DHT22;20193;49.810;6.418;2022-08-26T15:36:00;25.60;76.20
33901;DHT22;20193;49.810;6.418;2022-08-26T15:38:36;25.60;76.50
33901;DHT22;20193;49.810;6.418;2022-08-26T15:41:04;25.50;76.70
33901;DHT22;20193;49.810;6.418;2022-08-26T15:43:30;25.40;76.80
33901;DHT22;20193;49.810;6.418;2022-08-26T15:45:56;25.30;77.00
33901;DHT22;20193;49.810;6.418;2022-08-26T15:48:22;25.30;77.10
33901;DHT22;20193;49.810;6.418;2022-08-26T15:50:54;25.20;77.30
33901;DHT22;20193;49.810;6.418;2022-08-26T15:53:21;25.00;77.60
33901;DHT22;20193;49.810;6.418;2022-08-26T15:56:04;25.00;78.00
33901;DHT22;20193;49.810;6.418;2022-08-26T15:58:31;25.00;78.20
33901;DHT22;20193;49.810;6.418;2022-08-26T16:00:56;24.90;78.30
33901;DHT22;20193;49.810;6.418;2022-08-26T16:03:23;24.80;78.50
33901;DHT22;20193;49.810;6.418;2022-08-26T16:05:48;24.70;78.70
33901;DHT22;20193;49.810;6.418;2022-08-26T16:08:14;24.70;78.90
33901;DHT22;20193;49.810;6.418;2022-08-26T16:10:43;24.70;79.10
33901;DHT22;20193;49.810;6.418;2022-08-26T16:13:10;24.50;79.00
33901;DHT22;20193;49.810;6.418;2022-08-26T16:15:36;24.40;79.40
33901;DHT22;20193;49.810;6.418;2022-08-26T16:18:03;24.30;79.80
33901;DHT22;20193;49.810;6.418;2022-08-26T16:20:30;24.10;80.10
33901;DHT22;20193;49.810;6.418;2022-08-26T16:22:57;24.10;80.50
33901;DHT22;20193;49.810;6.418;2022-08-26T16:25:24;24.10;80.80
33901;DHT22;20193;49.810;6.418;2022-08-26T16:27:50;24.10;80.90
33901;DHT22;20193;49.810;6.418;2022-08-26T16:30:17;24.00;80.90
33901;DHT22;20193;49.810;6.418;2022-08-26T16:32:44;24.00;80.90
33901;DHT22;20193;49.810;6.418;2022-08-26T16:35:10;24.00;80.80
33901;DHT22;20193;49.810;6.418;2022-08-26T16:37:36;24.00;80.90
33901;DHT22;20193;49.810;6.418;2022-08-26T16:40:03;24.00;81.00
33901;DHT22;20193;49.810;6.418;2022-08-26T16:42:29;24.00;80.80
33901;DHT22;20193;49.810;6.418;2022-08-26T16:44:55;23.90;80.60
33901;DHT22;20193;49.810;6.418;2022-08-26T16:47:20;23.90;80.90
33901;DHT22;20193;49.810;6.418;2022-08-26T16:49:47;23.80;81.00
33901;DHT22;20193;49.810;6.418;2022-08-26T16:52:13;23.70;81.10
33901;DHT22;20193;49.810;6.418;2022-08-26T16:54:40;23.70;81.20